createdAt,value
2022-08-09T00:01:16.587Z,18.57
2022-08-09T00:04:08.481Z,18.49
2022-08-09T00:06:37.805Z,18.42
2022-08-09T00:09:07.900Z,18.40
2022-08-09T00:11:58.611Z,18.40
2022-08-09T00:14:37.793Z,18.43
2022-08-09T00:17:09.568Z,18.48
2022-08-09T00:20:00.227Z,18.47
2022-08-09T00:22:35.017Z,18.43
2022-08-09T00:25:12.704Z,18.40
2022-08-09T00:27:47.922Z,18.37
2022-08-09T00:30:26.189Z,18.40
2022-08-09T00:32:56.688Z,18.44
2022-08-09T00:35:43.269Z,18.44
2022-08-09T00:38:15.278Z,18.47
2022-08-09T00:40:52.476Z,18.50
2022-08-09T00:44:10.202Z,18.57
2022-08-09T00:47:33.207Z,18.62
2022-08-09T00:50:14.310Z,18.68
2022-08-09T00:52:47.884Z,18.70
2022-08-09T00:56:03.000Z,18.71
2022-08-09T00:58:36.066Z,18.72
2022-08-09T01:01:32.306Z,18.75
2022-08-09T01:04:09.299Z,18.77
2022-08-09T01:07:19.496Z,18.74
2022-08-09T01:10:51.908Z,18.58
2022-08-09T01:13:59.258Z,18.41
2022-08-09T01:16:47.260Z,18.26
2022-08-09T01:19:51.765Z,18.16
2022-08-09T01:22:45.402Z,18.07
2022-08-09T01:25:37.372Z,17.99
2022-08-09T01:28:14.150Z,17.91
2022-08-09T01:30:51.921Z,17.86
2022-08-09T01:33:27.985Z,17.80
2022-08-09T01:36:15.666Z,17.76
2022-08-09T01:38:49.104Z,17.71
2022-08-09T01:41:31.730Z,17.63
2022-08-09T01:44:06.488Z,17.56
2022-08-09T01:47:31.403Z,17.51
2022-08-09T01:50:06.749Z,17.46
2022-08-09T01:52:41.451Z,17.45
2022-08-09T01:55:14.655Z,17.44
2022-08-09T01:57:52.868Z,17.48
2022-08-09T02:00:35.533Z,17.53
2022-08-09T02:03:11.344Z,17.61
2022-08-09T02:06:04.237Z,17.69
2022-08-09T02:08:58.035Z,17.81
2022-08-09T02:11:42.479Z,17.90
2022-08-09T02:14:26.567Z,17.95
2022-08-09T02:17:59.261Z,17.94
2022-08-09T02:20:09.345Z,17.91
2022-08-09T02:22:46.653Z,17.93
2022-08-09T02:25:22.487Z,17.90
2022-08-09T02:28:33.121Z,17.91
2022-08-09T02:31:06.683Z,17.88
2022-08-09T02:34:07.492Z,17.83
2022-08-09T02:36:37.768Z,17.84
2022-08-09T02:39:20.070Z,17.86
2022-08-09T02:42:19.028Z,17.92
2022-08-09T02:45:09.568Z,18.00
2022-08-09T02:47:57.351Z,18.06
2022-08-09T02:50:37.713Z,18.06
2022-08-09T02:53:26.197Z,18.05
2022-08-09T02:56:01.955Z,18.02
2022-08-09T02:58:37.219Z,18.00
2022-08-09T03:01:15.153Z,17.96
2022-08-09T03:04:17.873Z,17.89
2022-08-09T03:06:46.765Z,17.80
2022-08-09T03:09:20.972Z,17.76
2022-08-09T03:12:08.413Z,17.76
2022-08-09T03:14:45.785Z,17.82
2022-08-09T03:17:26.735Z,17.86
2022-08-09T03:20:05.204Z,17.90
2022-08-09T03:22:56.931Z,17.93
2022-08-09T03:25:58.093Z,17.98
2022-08-09T03:28:25.152Z,17.99
2022-08-09T03:30:57.070Z,17.99
2022-08-09T03:33:54.696Z,17.98
2022-08-09T03:36:21.009Z,17.92
2022-08-09T03:39:01.054Z,17.83
2022-08-09T03:41:45.854Z,17.77
2022-08-09T03:44:19.848Z,17.71
2022-08-09T03:46:58.968Z,17.66
2022-08-09T03:49:36.944Z,17.66
2022-08-09T03:52:13.108Z,17.67
2022-08-09T03:54:45.909Z,17.70
2022-08-09T03:57:23.197Z,17.77
2022-08-09T04:00:01.256Z,17.82
2022-08-09T04:02:45.673Z,17.83
2022-08-09T04:05:27.336Z,17.82
2022-08-09T04:07:58.953Z,17.80
2022-08-09T04:10:30.569Z,17.80
2022-08-09T04:13:04.087Z,17.82
2022-08-09T04:16:17.965Z,17.83
2022-08-09T04:18:34.104Z,17.84
2022-08-09T04:21:07.182Z,17.84
2022-08-09T04:23:38.843Z,17.84
2022-08-09T04:26:13.384Z,17.85
2022-08-09T04:28:47.471Z,17.85
2022-08-09T04:31:23.376Z,17.87
2022-08-09T04:33:59.534Z,17.89
2022-08-09T04:36:34.072Z,17.90
2022-08-09T04:39:10.662Z,17.92
2022-08-09T04:41:45.639Z,17.96
2022-08-09T04:44:20.606Z,17.99
2022-08-09T04:46:59.387Z,18.03
2022-08-09T04:49:54.259Z,18.04
2022-08-09T04:52:28.080Z,18.06
2022-08-09T04:55:00.416Z,18.07
2022-08-09T04:57:54.394Z,18.11
2022-08-09T05:00:31.881Z,18.14
2022-08-09T05:03:30.254Z,18.17
2022-08-09T05:06:06.842Z,18.22
2022-08-09T05:08:43.720Z,18.29
2022-08-09T05:11:18.085Z,18.38
2022-08-09T05:13:51.898Z,18.46
2022-08-09T05:16:31.523Z,18.54
2022-08-09T05:19:02.767Z,18.60
2022-08-09T05:21:36.640Z,18.66
2022-08-09T05:24:18.347Z,18.72
2022-08-09T05:26:50.814Z,18.75
2022-08-09T05:29:22.149Z,18.81
2022-08-09T05:32:00.607Z,18.89
2022-08-09T05:34:33.199Z,18.97
2022-08-09T05:37:11.541Z,19.06
2022-08-09T05:39:44.959Z,19.16
2022-08-09T05:42:21.866Z,19.27
2022-08-09T05:45:55.732Z,19.39
2022-08-09T05:48:32.883Z,19.53
2022-08-09T05:51:16.866Z,19.65
2022-08-09T05:53:57.641Z,19.78
2022-08-09T05:56:33.086Z,19.91
2022-08-09T05:59:04.421Z,20.03
2022-08-09T06:01:42.767Z,20.09
2022-08-09T06:04:23.305Z,20.12
2022-08-09T06:06:56.913Z,20.20
2022-08-09T06:09:54.102Z,20.24
2022-08-09T06:12:22.131Z,20.25
2022-08-09T06:15:01.302Z,20.25
2022-08-09T06:17:39.726Z,20.27
2022-08-09T06:20:12.854Z,20.31
2022-08-09T06:22:50.352Z,20.29
2022-08-09T06:25:23.457Z,20.27
2022-08-09T06:27:53.142Z,20.30
2022-08-09T06:30:23.054Z,20.33
2022-08-09T06:33:13.179Z,20.39
2022-08-09T06:35:57.095Z,20.41
2022-08-09T06:38:32.219Z,20.42
2022-08-09T06:41:18.250Z,20.41
2022-08-09T06:43:50.618Z,20.40
2022-08-09T06:46:40.485Z,20.43
2022-08-09T06:49:10.996Z,20.43
2022-08-09T06:51:42.325Z,20.45
2022-08-09T06:54:14.912Z,20.51
2022-08-09T06:56:47.116Z,20.55
2022-08-09T07:00:52.109Z,20.61
2022-08-09T07:02:08.300Z,20.63
2022-08-09T07:04:41.831Z,20.66
2022-08-09T07:08:00.201Z,20.72
2022-08-09T07:10:29.693Z,20.77
2022-08-09T07:22:36.318Z,20.87
2022-08-09T07:25:32.831Z,20.91
2022-08-09T07:28:19.314Z,21.00
2022-08-09T07:31:27.943Z,21.13
2022-08-09T07:34:06.126Z,21.26
2022-08-09T07:36:47.388Z,21.38
2022-08-09T07:42:55.707Z,21.65
2022-08-09T07:46:31.113Z,21.79
2022-08-09T07:49:01.761Z,21.93
2022-08-09T07:56:36.891Z,22.34
2022-08-09T07:59:14.161Z,22.50
2022-08-09T08:01:58.072Z,22.74
2022-08-09T08:04:31.723Z,22.97
2022-08-09T08:07:15.468Z,23.22
2022-08-09T08:10:08.765Z,23.49
2022-08-09T08:12:45.418Z,23.73
2022-08-09T08:15:23.239Z,24.00
2022-08-09T08:17:58.146Z,24.25
2022-08-09T08:20:32.646Z,24.40
2022-08-09T08:23:16.801Z,24.36
2022-08-09T08:26:06.497Z,24.27
2022-08-09T08:28:43.997Z,24.23
2022-08-09T08:31:16.101Z,24.19
2022-08-09T08:33:52.269Z,24.42
2022-08-09T08:36:34.892Z,24.60
2022-08-09T08:40:53.561Z,24.83
2022-08-09T08:43:24.298Z,25.58
2022-08-09T08:46:32.033Z,25.74
2022-08-09T08:49:04.528Z,25.77
2022-08-09T08:51:38.790Z,25.83
2022-08-09T08:54:20.654Z,25.87
2022-08-09T08:57:11.344Z,25.91
2022-08-09T08:59:46.426Z,26.03
2022-08-09T09:02:31.481Z,26.12
2022-08-09T09:05:09.864Z,26.04
2022-08-09T09:07:45.119Z,26.04
2022-08-09T09:10:17.830Z,26.07
2022-08-09T09:12:51.603Z,26.06
2022-08-09T09:15:28.337Z,26.12
2022-08-09T09:17:59.276Z,26.18
2022-08-09T09:20:36.949Z,26.17
2022-08-09T09:23:07.442Z,26.14
2022-08-09T09:26:01.879Z,26.16
2022-08-09T09:28:39.073Z,26.15
2022-08-09T09:32:05.954Z,26.21
2022-08-09T09:34:24.106Z,26.20
2022-08-09T09:37:12.956Z,26.21
2022-08-09T09:39:57.007Z,26.34
2022-08-09T09:42:31.181Z,26.45
2022-08-09T09:46:39.078Z,26.52
2022-08-09T09:48:41.053Z,26.58
2022-08-09T09:51:26.161Z,26.75
2022-08-09T09:54:20.284Z,27.05
2022-08-09T09:58:03.664Z,27.36
2022-08-09T09:59:47.176Z,27.65
2022-08-09T10:02:30.297Z,28.10
2022-08-09T10:05:11.896Z,28.61
2022-08-09T10:08:10.892Z,29.17
2022-08-09T10:10:40.654Z,29.61
2022-08-09T10:13:24.886Z,29.79
2022-08-09T10:16:54.727Z,30.05
2022-08-09T10:18:59.899Z,30.37
2022-08-09T10:21:37.093Z,31.11
2022-08-09T10:24:10.073Z,31.55
2022-08-09T10:26:50.026Z,31.68
2022-08-09T10:30:22.160Z,31.91
2022-08-09T10:35:13.221Z,32.74
2022-08-09T10:37:44.694Z,33.62
2022-08-09T10:40:34.704Z,34.10
2022-08-09T11:24:00.339Z,34.72
2022-08-09T11:26:47.211Z,34.04
2022-08-09T11:30:05.624Z,33.55
2022-08-09T11:33:01.808Z,33.11
2022-08-09T11:35:50.255Z,32.86
2022-08-09T11:38:32.349Z,32.40
2022-08-09T11:41:38.180Z,32.13
2022-08-09T11:44:13.513Z,32.51
2022-08-09T11:47:35.400Z,32.40
2022-08-09T11:50:55.557Z,32.73
2022-08-09T11:53:21.146Z,32.83
2022-08-09T11:56:02.334Z,32.86
2022-08-09T11:59:01.570Z,32.84
2022-08-09T12:02:00.913Z,32.79
2022-08-09T12:04:32.435Z,32.89
2022-08-09T12:07:09.783Z,33.29
2022-08-09T12:09:40.658Z,33.76
2022-08-09T12:12:28.800Z,33.79
2022-08-09T12:15:48.439Z,33.25
2022-08-09T12:18:29.889Z,33.14
2022-08-09T12:21:03.139Z,32.91
2022-08-09T12:23:56.128Z,32.72
2022-08-09T12:26:26.593Z,32.78
2022-08-09T12:29:29.445Z,33.20
2022-08-09T12:32:02.584Z,33.49
2022-08-09T12:34:39.883Z,33.58
2022-08-09T12:37:23.741Z,33.59
2022-08-09T12:40:12.182Z,33.81
2022-08-09T12:43:05.395Z,34.09
2022-08-09T12:46:32.565Z,34.26
2022-08-09T12:52:44.274Z,33.61
2022-08-09T12:59:57.775Z,33.23
2022-08-09T13:50:54.548Z,30.95
2022-08-09T13:53:57.438Z,30.81
2022-08-09T13:56:50.133Z,30.38
2022-08-09T14:00:05.731Z,30.37
2022-08-09T14:03:17.075Z,30.62
2022-08-09T14:06:02.657Z,30.91
2022-08-09T14:08:37.311Z,30.70
2022-08-09T14:11:16.169Z,30.61
2022-08-09T14:14:24.006Z,30.84
2022-08-09T14:16:42.335Z,31.20
2022-08-09T14:19:13.139Z,31.15
2022-08-09T14:21:43.588Z,31.31
2022-08-09T14:24:35.898Z,31.44
2022-08-09T14:27:19.997Z,31.59
2022-08-09T14:30:37.434Z,31.78
2022-08-09T14:32:47.183Z,31.85
2022-08-09T14:35:52.629Z,31.77
2022-08-09T14:38:33.355Z,31.33
2022-08-09T14:41:34.797Z,30.77
2022-08-09T14:43:59.289Z,30.39
2022-08-09T14:46:56.031Z,30.33
2022-08-09T14:50:17.401Z,30.22
2022-08-09T14:53:14.049Z,29.94
2022-08-09T14:55:50.508Z,29.64
2022-08-09T14:58:24.265Z,29.47
2022-08-09T15:00:57.771Z,29.42
2022-08-09T15:03:30.624Z,29.40
2022-08-09T15:06:04.215Z,29.25
2022-08-09T15:08:35.221Z,28.98
2022-08-09T15:11:07.415Z,28.60
2022-08-09T15:13:48.581Z,28.31
2022-08-09T15:16:31.447Z,28.14
2022-08-09T15:19:15.916Z,27.94
2022-08-09T15:22:06.740Z,27.85
2022-08-09T15:24:59.533Z,28.06
2022-08-09T15:28:35.536Z,28.22
2022-08-09T15:31:40.995Z,27.92
2022-08-09T15:41:33.597Z,26.98
2022-08-09T15:48:29.021Z,26.40
2022-08-09T15:51:30.162Z,26.18
2022-08-09T16:20:16.323Z,25.07
2022-08-09T16:22:56.060Z,24.88
2022-08-09T16:25:49.885Z,24.64
2022-08-09T16:28:25.512Z,24.51
2022-08-09T16:31:15.848Z,24.41
2022-08-09T16:33:47.060Z,24.33
2022-08-09T16:36:40.864Z,24.32
2022-08-09T16:39:39.996Z,24.33
2022-08-09T16:42:57.055Z,24.22
2022-08-09T16:45:53.483Z,24.21
2022-08-09T16:48:43.283Z,24.27
2022-08-09T16:51:17.989Z,24.34
2022-08-09T16:54:16.465Z,24.42
2022-08-09T16:56:53.169Z,24.59
2022-08-09T16:59:22.599Z,24.67
2022-08-09T17:01:54.960Z,24.81
2022-08-09T17:04:29.765Z,24.93
2022-08-09T17:08:46.924Z,25.04
2022-08-09T17:09:50.694Z,25.17
2022-08-09T17:12:21.502Z,25.20
2022-08-09T17:14:58.357Z,25.23
2022-08-09T17:17:30.794Z,25.21
2022-08-09T17:20:32.428Z,25.18
2022-08-09T17:23:14.751Z,25.20
2022-08-09T17:25:52.777Z,25.21
2022-08-09T17:28:25.125Z,25.18
2022-08-09T17:30:57.215Z,25.12
2022-08-09T17:33:26.318Z,25.08
2022-08-09T17:36:05.776Z,25.03
2022-08-09T17:38:39.537Z,24.94
2022-08-09T17:41:10.561Z,24.84
2022-08-09T17:43:47.118Z,24.73
2022-08-09T17:46:34.240Z,24.62
2022-08-09T17:49:05.467Z,24.52
2022-08-09T17:51:40.266Z,24.36
2022-08-09T17:54:13.103Z,24.20
2022-08-09T17:56:47.015Z,24.15
2022-08-09T17:59:20.181Z,24.09
2022-08-09T18:02:07.391Z,24.03
2022-08-09T18:04:52.011Z,23.92
2022-08-09T18:07:30.320Z,23.81
2022-08-09T18:10:12.078Z,23.65
2022-08-09T18:13:38.924Z,23.53
2022-08-09T18:16:08.086Z,23.43
2022-08-09T18:18:43.347Z,23.33
2022-08-09T18:21:23.512Z,23.24
2022-08-09T18:24:09.975Z,23.14
2022-08-09T18:26:46.290Z,23.05
2022-08-09T18:30:41.746Z,22.94
2022-08-09T18:32:09.566Z,22.81
2022-08-09T18:34:40.036Z,22.67
2022-08-09T18:37:47.175Z,22.54
2022-08-09T18:40:04.297Z,22.39
2022-08-09T18:42:38.001Z,22.25
2022-08-09T18:46:47.909Z,22.00
2022-08-09T18:48:34.069Z,21.67
2022-08-09T18:51:05.904Z,21.53
2022-08-09T18:53:59.714Z,21.43
2022-08-09T18:56:29.728Z,21.36
2022-08-09T18:59:01.259Z,21.31
2022-08-09T19:01:32.187Z,21.27
2022-08-09T19:04:17.867Z,21.15
2022-08-09T19:07:06.012Z,21.01
2022-08-09T19:10:13.927Z,20.86
2022-08-09T19:12:32.174Z,20.75
2022-08-09T19:15:08.421Z,20.62
2022-08-09T19:17:54.668Z,20.51
2022-08-09T19:20:34.068Z,20.38
2022-08-09T19:23:06.617Z,20.20
2022-08-09T19:26:01.520Z,20.11
2022-08-09T19:28:30.002Z,20.06
2022-08-09T19:31:01.154Z,19.99
2022-08-09T19:33:34.962Z,19.93
2022-08-09T19:36:07.164Z,19.84
2022-08-09T19:38:42.947Z,19.77
2022-08-09T19:41:33.037Z,19.72
2022-08-09T19:44:06.541Z,19.66
2022-08-09T19:47:29.000Z,19.62
2022-08-09T19:50:08.044Z,19.59
2022-08-09T19:52:54.083Z,19.56
2022-08-09T19:55:30.507Z,19.50
2022-08-09T19:58:16.138Z,19.44
2022-08-09T20:00:48.184Z,19.40
2022-08-09T20:04:10.665Z,19.37
2022-08-09T20:06:10.529Z,19.33
2022-08-09T20:08:56.702Z,19.28
2022-08-09T20:11:42.925Z,19.25
2022-08-09T20:14:17.173Z,19.22
2022-08-09T20:16:53.279Z,19.17
2022-08-09T20:19:47.567Z,19.10
2022-08-09T20:22:18.475Z,19.06
2022-08-09T20:24:53.521Z,19.02
2022-08-09T20:27:24.885Z,18.98
2022-08-09T20:30:02.642Z,18.96
2022-08-09T20:32:34.115Z,18.93
2022-08-09T20:35:04.054Z,18.89
2022-08-09T20:38:21.018Z,18.85
2022-08-09T20:40:33.418Z,18.78
2022-08-09T20:43:19.030Z,18.75
2022-08-09T20:50:47.585Z,18.57
2022-08-09T20:53:35.534Z,18.41
2022-08-09T20:56:21.679Z,18.32
2022-08-09T20:59:24.883Z,18.32
2022-08-09T21:03:10.169Z,18.27
2022-08-09T21:05:59.707Z,18.23
2022-08-09T21:08:36.515Z,18.19
2022-08-09T21:14:00.498Z,18.12
2022-08-09T21:16:35.152Z,18.08
2022-08-09T21:20:19.097Z,18.05
2022-08-09T21:22:05.141Z,17.99
2022-08-09T21:25:14.158Z,17.96
2022-08-09T21:27:52.535Z,17.90
2022-08-09T21:30:40.357Z,17.84
2022-08-09T21:33:14.902Z,17.77
2022-08-09T21:35:54.784Z,17.72
2022-08-09T21:38:31.637Z,17.63
2022-08-09T21:41:08.400Z,17.39
2022-08-09T21:43:56.683Z,17.15
2022-08-09T21:46:37.168Z,16.97
2022-08-09T21:49:07.329Z,16.88
2022-08-09T21:51:43.919Z,16.85
2022-08-09T21:54:21.586Z,16.84
2022-08-09T21:56:54.379Z,16.83
2022-08-09T21:59:29.252Z,16.78
2022-08-09T22:02:36.481Z,16.64
2022-08-09T22:05:16.846Z,16.41
2022-08-09T22:07:57.705Z,16.26
2022-08-09T22:10:33.279Z,16.24
2022-08-09T22:13:07.655Z,16.21
2022-08-09T22:15:42.222Z,16.22
2022-08-09T22:18:14.182Z,16.23
2022-08-09T22:20:47.378Z,16.25
2022-08-09T22:23:25.413Z,16.26
2022-08-09T22:26:07.260Z,16.23
2022-08-09T22:28:47.254Z,16.12
2022-08-09T22:31:27.697Z,15.91
2022-08-09T22:34:02.383Z,15.71
2022-08-09T22:36:37.360Z,15.52
2022-08-09T22:39:46.845Z,15.37
2022-08-09T22:42:20.734Z,15.22
2022-08-09T22:45:00.030Z,15.12
2022-08-09T22:48:11.474Z,15.06
2022-08-09T22:50:36.124Z,15.03
2022-08-09T22:53:09.281Z,15.03
2022-08-09T22:56:30.806Z,15.01
2022-08-09T22:58:37.216Z,14.99
2022-08-09T23:01:12.344Z,15.00
2022-08-09T23:04:03.782Z,14.90
2022-08-09T23:06:53.807Z,14.79
2022-08-09T23:09:36.101Z,14.73
2022-08-09T23:12:12.574Z,14.67
2022-08-09T23:14:45.611Z,14.59
2022-08-09T23:17:22.401Z,14.49
2022-08-09T23:20:00.643Z,14.46
2022-08-09T23:22:51.258Z,14.43
2022-08-09T23:25:24.081Z,14.42
2022-08-09T23:28:15.429Z,14.47
2022-08-09T23:30:52.098Z,14.52
2022-08-09T23:33:35.338Z,14.57
2022-08-09T23:36:22.276Z,14.59
2022-08-09T23:39:02.197Z,14.61
2022-08-09T23:41:31.576Z,14.61
2022-08-09T23:44:05.862Z,14.60
2022-08-09T23:46:43.356Z,14.57
2022-08-09T23:49:14.089Z,14.49
2022-08-09T23:51:54.691Z,14.38
2022-08-09T23:54:27.562Z,14.28
2022-08-09T23:57:01.104Z,14.18
2022-08-09T23:59:51.775Z,14.14
